Time;durP1;ratioP1;P1;durP2;ratioP2;P2;SDS_P1;SDS_P2;PMS_P1;PMS_P2;Temp;Humidity;BMP_temperature;BMP_pressure;BME280_temperature;BME280_humidity;BME280_pressure;Samples;Min_cycle;Max_cycle;Signal;HPM_P1;HPM_P2
2021/01/02 00:00:34;;;;;;;49.53;37.00;;;;;;;;;;5110293;28;20675;-51
2021/01/02 00:03:10;;;;;;;48.28;36.92;;;;;;;;;;5108052;28;20204;-50
2021/01/02 00:05:43;;;;;;;48.90;36.07;;;;;;;;;;5110032;28;20241;-51
2021/01/02 00:08:15;;;;;;;54.80;38.90;;;;;;;;;;5110234;28;20608;-52
2021/01/02 00:10:44;;;;;;;48.47;36.23;;;;;;;;;;5109291;28;20591;-51
2021/01/02 00:13:32;;;;;;;43.10;34.93;;;;;;;;;;5103670;28;20719;-52
2021/01/02 00:16:10;;;;;;;55.43;37.00;;;;;;;;;;5080279;28;21165;-52
2021/01/02 00:18:35;;;;;;;46.10;35.07;;;;;;;;;;5111887;28;20699;-51
2021/01/02 00:21:19;;;;;;;47.30;35.27;;;;;;;;;;5114528;28;21154;-51
2021/01/02 00:24:03;;;;;;;50.93;35.83;;;;;;;;;;5111991;28;20209;-52
2021/01/02 00:26:44;;;;;;;49.80;36.10;;;;;;;;;;5114503;28;20599;-51
2021/01/02 00:29:18;;;;;;;49.20;35.93;;;;;;;;;;5114806;28;20689;-52
2021/01/02 00:32:02;;;;;;;45.00;34.93;;;;;;;;;;5118019;27;20607;-52
2021/01/02 00:34:44;;;;;;;43.30;34.93;;;;;;;;;;5105018;28;20658;-51
2021/01/02 00:37:17;;;;;;;45.40;35.40;;;;;;;;;;5114523;28;20635;-51
2021/01/02 00:39:42;;;;;;;46.60;36.90;;;;;;;;;;5113667;28;20596;-52
2021/01/02 00:42:10;;;;;;;44.42;34.65;;;;;;;;;;5114105;28;20637;-51
2021/01/02 00:44:40;;;;;;;50.17;35.93;;;;;;;;;;5111476;28;20177;-52
2021/01/02 00:47:05;;;;;;;46.33;35.80;;;;;;;;;;5113793;28;20581;-52
2021/01/02 00:49:31;;;;;;;46.47;36.22;;;;;;;;;;5112869;28;20624;-52
2021/01/02 00:52:09;;;;;;;49.40;35.70;;;;;;;;;;5113977;28;20170;-52
2021/01/02 00:54:41;;;;;;;45.27;33.93;;;;;;;;;;5109663;28;20177;-51
2021/01/02 00:57:11;;;;;;;43.77;34.07;;;;;;;;;;5113581;28;20606;-51
2021/01/02 00:59:47;;;;;;;44.73;34.20;;;;;;;;;;5113121;28;20608;-49
2021/01/02 01:02:31;;;;;;;45.47;32.67;;;;;;;;;;5113310;28;21181;-50
2021/01/02 01:05:09;;;;;;;43.23;32.67;;;;;;;;;;5109890;28;20592;-52
2021/01/02 01:07:35;;;;;;;44.43;33.47;;;;;;;;;;5113420;28;20591;-51
2021/01/02 01:10:04;;;;;;;43.93;32.70;;;;;;;;;;5113366;28;20584;-51
2021/01/02 01:12:33;;;;;;;46.23;34.37;;;;;;;;;;5112446;28;20722;-52
2021/01/02 01:15:01;;;;;;;50.63;33.13;;;;;;;;;;5108720;28;20952;-52
2021/01/02 01:17:28;;;;;;;41.13;32.30;;;;;;;;;;5113002;28;20609;-52
2021/01/02 01:19:54;;;;;;;45.20;33.93;;;;;;;;;;5113306;28;20631;-51
2021/01/02 01:22:23;;;;;;;41.20;31.80;;;;;;;;;;5112952;28;21077;-51
2021/01/02 01:24:53;;;;;;;47.60;33.77;;;;;;;;;;5110373;28;21241;-51
2021/01/02 01:27:29;;;;;;;46.03;33.67;;;;;;;;;;5113236;28;20624;-50
2021/01/02 01:29:58;;;;;;;43.97;32.70;;;;;;;;;;5107378;28;20622;-51
2021/01/02 01:32:25;;;;;;;41.77;32.10;;;;;;;;;;5113202;28;21198;-52
2021/01/02 01:34:57;;;;;;;46.93;33.73;;;;;;;;;;5109463;28;21133;-52
2021/01/02 01:37:25;;;;;;;43.47;33.17;;;;;;;;;;5112904;28;20589;-52
2021/01/02 01:39:51;;;;;;;40.70;30.70;;;;;;;;;;5116005;27;20711;-52
2021/01/02 01:42:17;;;;;;;45.40;32.47;;;;;;;;;;5115485;27;21256;-51
2021/01/02 01:44:54;;;;;;;41.17;32.23;;;;;;;;;;5108990;28;20599;-51
2021/01/02 01:47:39;;;;;;;40.00;29.40;;;;;;;;;;5112077;28;20598;-51
2021/01/02 01:50:14;;;;;;;40.73;30.93;;;;;;;;;;5107351;28;20613;-51
2021/01/02 01:52:40;;;;;;;43.43;31.50;;;;;;;;;;5111471;28;20599;-51
2021/01/02 01:55:07;;;;;;;42.22;31.00;;;;;;;;;;5110785;28;20689;-51
2021/01/02 01:57:39;;;;;;;38.90;30.60;;;;;;;;;;5112479;28;20682;-51
2021/01/02 02:00:09;;;;;;;42.73;31.37;;;;;;;;;;5111919;28;21241;-52
2021/01/02 02:02:37;;;;;;;46.23;30.60;;;;;;;;;;5112012;28;21272;-51
2021/01/02 02:05:04;;;;;;;42.20;32.23;;;;;;;;;;5108663;28;20591;-52
2021/01/02 02:07:39;;;;;;;39.20;29.67;;;;;;;;;;5111256;28;20620;-51
2021/01/02 02:10:05;;;;;;;43.60;32.27;;;;;;;;;;5112457;28;20669;-51
2021/01/02 02:12:34;;;;;;;39.57;30.80;;;;;;;;;;5110883;28;20606;-50
2021/01/02 02:14:59;;;;;;;43.20;31.17;;;;;;;;;;5108609;28;20595;-52
2021/01/02 02:17:28;;;;;;;39.60;31.20;;;;;;;;;;5111587;28;20597;-52
2021/01/02 02:20:06;;;;;;;41.20;32.27;;;;;;;;;;5110860;28;20225;-51
2021/01/02 02:22:34;;;;;;;42.50;31.50;;;;;;;;;;5121662;27;21260;-52
2021/01/02 02:24:59;;;;;;;44.63;32.23;;;;;;;;;;5106108;28;20675;-52
2021/01/02 02:27:25;;;;;;;41.60;31.33;;;;;;;;;;5112107;28;20645;-52
2021/01/02 02:29:58;;;;;;;44.97;33.40;;;;;;;;;;5111549;28;20198;-53
2021/01/02 02:32:25;;;;;;;39.40;30.33;;;;;;;;;;5111922;28;20599;-52
2021/01/02 02:34:52;;;;;;;45.17;33.10;;;;;;;;;;5109431;28;20642;-53
2021/01/02 02:37:17;;;;;;;40.60;31.23;;;;;;;;;;5111611;28;20711;-52
2021/01/02 02:39:44;;;;;;;40.80;32.72;;;;;;;;;;5110750;28;20741;-51
2021/01/02 02:42:09;;;;;;;40.77;32.03;;;;;;;;;;5111703;28;20205;-53
2021/01/02 02:44:36;;;;;;;41.60;32.90;;;;;;;;;;5111216;27;20602;-51
2021/01/02 02:47:02;;;;;;;44.67;33.73;;;;;;;;;;5112081;28;20249;-51
2021/01/02 02:49:31;;;;;;;39.23;31.80;;;;;;;;;;5110765;28;20675;-50
2021/01/02 02:52:04;;;;;;;44.90;32.80;;;;;;;;;;5111614;28;20178;-51
2021/01/02 02:54:30;;;;;;;42.47;32.93;;;;;;;;;;5109593;28;20595;-51
2021/01/02 02:56:55;;;;;;;42.20;33.37;;;;;;;;;;5109935;28;20595;-50
2021/01/02 02:59:20;;;;;;;44.50;33.13;;;;;;;;;;5111616;28;20576;-52
2021/01/02 03:01:48;;;;;;;43.72;33.63;;;;;;;;;;5112522;27;20171;-51
2021/01/02 03:04:14;;;;;;;42.80;31.80;;;;;;;;;;5112009;27;20181;-51
2021/01/02 03:06:39;;;;;;;44.33;32.83;;;;;;;;;;5108819;28;20591;-51
2021/01/02 03:09:04;;;;;;;42.65;32.10;;;;;;;;;;5110975;27;20174;-51
2021/01/02 03:11:30;;;;;;;41.97;33.45;;;;;;;;;;5110575;28;20265;-51
2021/01/02 03:13:55;;;;;;;45.20;32.53;;;;;;;;;;5108777;28;20648;-51
2021/01/02 03:16:23;;;;;;;45.37;33.20;;;;;;;;;;5110451;28;20228;-52
2021/01/02 03:18:48;;;;;;;41.23;30.70;;;;;;;;;;5110590;28;20221;-52
2021/01/02 03:21:13;;;;;;;46.87;32.43;;;;;;;;;;5110523;28;21167;-52
2021/01/02 03:23:49;;;;;;;40.90;30.90;;;;;;;;;;5107895;28;20212;-52
2021/01/02 03:26:14;;;;;;;45.13;33.17;;;;;;;;;;5111274;28;20173;-51
2021/01/02 03:28:40;;;;;;;41.63;32.00;;;;;;;;;;5110604;28;20583;-50
2021/01/02 03:31:05;;;;;;;41.33;31.77;;;;;;;;;;5111258;28;20537;-51
2021/01/02 03:33:31;;;;;;;47.00;34.13;;;;;;;;;;5110208;28;20202;-51
2021/01/02 03:36:00;;;;;;;43.77;33.67;;;;;;;;;;5108811;28;20662;-52
2021/01/02 03:38:25;;;;;;;48.13;34.30;;;;;;;;;;5110129;28;20176;-50
2021/01/02 03:40:50;;;;;;;44.43;32.97;;;;;;;;;;5108935;28;20610;-52
2021/01/02 03:43:16;;;;;;;46.22;32.80;;;;;;;;;;5109090;28;20208;-51
2021/01/02 03:45:41;;;;;;;45.10;32.67;;;;;;;;;;5107120;28;20490;-51
2021/01/02 03:48:06;;;;;;;46.15;32.88;;;;;;;;;;5110659;28;20168;-52
2021/01/02 03:50:31;;;;;;;43.23;31.90;;;;;;;;;;5110076;28;20172;-51
2021/01/02 03:52:57;;;;;;;46.47;33.42;;;;;;;;;;5109409;28;20183;-51
2021/01/02 03:55:22;;;;;;;45.50;32.70;;;;;;;;;;5104169;28;20674;-52
2021/01/02 03:57:48;;;;;;;40.63;30.75;;;;;;;;;;5110241;28;20997;-51
2021/01/02 04:00:14;;;;;;;42.35;31.48;;;;;;;;;;5109754;28;20670;-52
2021/01/02 04:02:39;;;;;;;43.70;33.00;;;;;;;;;;5108262;28;20201;-52
2021/01/02 04:05:05;;;;;;;47.78;34.60;;;;;;;;;;5108087;28;20593;-51
2021/01/02 04:07:30;;;;;;;42.67;31.13;;;;;;;;;;5110494;28;20182;-53
2021/01/02 04:09:55;;;;;;;49.50;32.60;;;;;;;;;;5109847;28;20231;-51
2021/01/02 04:12:21;;;;;;;43.73;30.63;;;;;;;;;;5109697;28;20178;-51
2021/01/02 04:14:46;;;;;;;45.43;30.57;;;;;;;;;;5107505;28;20181;-51
2021/01/02 04:17:11;;;;;;;48.22;32.75;;;;;;;;;;5110288;28;20514;-51
2021/01/02 04:19:36;;;;;;;44.42;30.52;;;;;;;;;;5109872;28;20213;-50
2021/01/02 04:22:01;;;;;;;48.87;32.90;;;;;;;;;;5110029;28;20211;-52
2021/01/02 04:24:26;;;;;;;41.50;30.90;;;;;;;;;;5111862;28;20208;-51
2021/01/02 04:26:57;;;;;;;42.37;32.53;;;;;;;;;;5106277;28;20177;-51
2021/01/02 04:29:22;;;;;;;48.00;31.77;;;;;;;;;;5106359;28;20272;-51
2021/01/02 04:31:49;;;;;;;45.55;32.03;;;;;;;;;;5110394;28;20586;-51
2021/01/02 04:34:14;;;;;;;45.40;32.43;;;;;;;;;;5108367;28;20761;-51
2021/01/02 04:36:39;;;;;;;42.92;29.48;;;;;;;;;;5108203;28;21152;-51
2021/01/02 04:39:04;;;;;;;46.83;32.45;;;;;;;;;;5110065;28;20179;-50
2021/01/02 04:41:30;;;;;;;43.00;31.57;;;;;;;;;;5110424;28;20173;-50
2021/01/02 04:43:55;;;;;;;42.13;31.10;;;;;;;;;;5109689;28;20207;-52
2021/01/02 04:46:21;;;;;;;46.92;30.65;;;;;;;;;;5108207;28;20548;-51
2021/01/02 04:48:48;;;;;;;46.63;31.00;;;;;;;;;;5104980;28;20723;-50
2021/01/02 04:51:14;;;;;;;45.07;30.77;;;;;;;;;;5109592;28;20594;-51
2021/01/02 04:53:39;;;;;;;43.00;30.50;;;;;;;;;;5110009;28;20596;-51
2021/01/02 04:56:05;;;;;;;45.77;31.50;;;;;;;;;;5110281;28;20178;-52
2021/01/02 04:58:31;;;;;;;43.30;30.37;;;;;;;;;;5109977;28;20199;-51
2021/01/02 05:00:57;;;;;;;44.60;30.33;;;;;;;;;;5109095;28;20268;-52
2021/01/02 05:03:22;;;;;;;42.60;29.90;;;;;;;;;;5110120;28;20635;-52
2021/01/02 05:05:50;;;;;;;47.65;31.13;;;;;;;;;;5113466;28;21145;-51
2021/01/02 05:08:16;;;;;;;47.13;30.23;;;;;;;;;;5113900;28;20187;-52
2021/01/02 05:10:41;;;;;;;42.28;29.35;;;;;;;;;;5113904;28;20591;-50
2021/01/02 05:13:12;;;;;;;39.25;28.17;;;;;;;;;;5113324;28;20226;-51
2021/01/02 05:15:37;;;;;;;42.43;31.07;;;;;;;;;;5111177;28;20182;-51
2021/01/02 05:18:03;;;;;;;45.00;30.50;;;;;;;;;;5113661;28;20599;-52
2021/01/02 05:20:28;;;;;;;41.70;28.40;;;;;;;;;;5113445;28;20183;-51
2021/01/02 05:22:53;;;;;;;41.57;28.23;;;;;;;;;;5113249;28;20720;-52
2021/01/02 05:25:20;;;;;;;42.63;30.50;;;;;;;;;;5109245;28;20672;-51
2021/01/02 05:27:46;;;;;;;40.60;27.20;;;;;;;;;;5113084;28;20218;-51
2021/01/02 05:30:15;;;;;;;42.87;30.00;;;;;;;;;;5113213;28;20587;-51
2021/01/02 05:32:53;;;;;;;45.30;28.00;;;;;;;;;;5113663;28;20677;-52
2021/01/02 05:35:19;;;;;;;40.33;27.53;;;;;;;;;;5110733;28;21198;-51
2021/01/02 05:37:44;;;;;;;40.30;28.33;;;;;;;;;;5106581;28;21024;-51
2021/01/02 05:40:09;;;;;;;40.63;28.80;;;;;;;;;;5112295;28;20680;-52
2021/01/02 05:42:35;;;;;;;42.17;27.20;;;;;;;;;;5121563;27;20212;-51
2021/01/02 05:45:01;;;;;;;42.00;28.70;;;;;;;;;;5107250;28;21007;-51
2021/01/02 05:47:29;;;;;;;40.60;27.80;;;;;;;;;;5110821;28;20802;-51
2021/01/02 05:49:55;;;;;;;43.93;26.97;;;;;;;;;;5111657;28;20591;-52
2021/01/02 05:52:20;;;;;;;46.40;28.80;;;;;;;;;;5112635;28;20592;-50
2021/01/02 05:54:48;;;;;;;39.92;26.17;;;;;;;;;;5110314;28;20257;-50
2021/01/02 05:57:14;;;;;;;39.27;28.30;;;;;;;;;;5108492;28;20542;-52
2021/01/02 05:59:40;;;;;;;43.07;27.67;;;;;;;;;;5111865;28;20589;-51
2021/01/02 06:02:18;;;;;;;44.13;29.20;;;;;;;;;;5111376;28;20638;-51
2021/01/02 06:04:53;;;;;;;37.47;25.33;;;;;;;;;;5111536;28;20648;-52
2021/01/02 06:07:19;;;;;;;42.10;26.67;;;;;;;;;;5108817;28;20579;-50
2021/01/02 06:09:44;;;;;;;44.53;29.02;;;;;;;;;;5107958;28;20681;-51
2021/01/02 06:12:09;;;;;;;41.73;27.00;;;;;;;;;;5112288;28;20205;-51
2021/01/02 06:14:34;;;;;;;39.77;27.20;;;;;;;;;;5111293;28;20264;-52
2021/01/02 06:17:04;;;;;;;37.37;26.90;;;;;;;;;;5107831;28;20747;-51
2021/01/02 06:19:29;;;;;;;37.00;25.33;;;;;;;;;;5109963;28;20236;-52
2021/01/02 06:21:55;;;;;;;43.97;28.33;;;;;;;;;;5111751;28;20602;-52
2021/01/02 06:24:20;;;;;;;38.15;25.92;;;;;;;;;;5109430;28;20723;-51
2021/01/02 06:26:45;;;;;;;38.90;26.83;;;;;;;;;;5106351;28;20681;-51
2021/01/02 06:29:10;;;;;;;44.95;27.45;;;;;;;;;;5112294;28;20216;-52
2021/01/02 06:31:35;;;;;;;39.20;25.80;;;;;;;;;;5111988;28;20205;-51
2021/01/02 06:34:04;;;;;;;34.97;25.83;;;;;;;;;;5112080;28;20187;-51
2021/01/02 06:36:33;;;;;;;33.97;25.23;;;;;;;;;;5107820;28;20726;-51
2021/01/02 06:39:17;;;;;;;39.50;26.57;;;;;;;;;;5111918;28;20590;-51
2021/01/02 06:41:42;;;;;;;38.77;25.83;;;;;;;;;;5111746;28;20605;-51
2021/01/02 06:44:08;;;;;;;38.83;26.70;;;;;;;;;;5111599;28;20705;-51
2021/01/02 06:46:36;;;;;;;37.53;26.80;;;;;;;;;;5109317;28;20222;-51
2021/01/02 06:49:21;;;;;;;39.17;26.67;;;;;;;;;;5102844;28;20176;-51
2021/01/02 06:51:50;;;;;;;37.93;26.57;;;;;;;;;;5104637;27;20867;-52
2021/01/02 06:54:21;;;;;;;33.90;25.20;;;;;;;;;;5109629;28;20656;-51
2021/01/02 06:56:46;;;;;;;39.67;26.70;;;;;;;;;;5105409;28;20629;-51
2021/01/02 06:59:20;;;;;;;39.35;26.95;;;;;;;;;;5106432;28;20588;-52
2021/01/02 07:01:45;;;;;;;35.10;24.67;;;;;;;;;;5108912;28;20206;-52
2021/01/02 07:04:11;;;;;;;42.53;27.38;;;;;;;;;;5109371;28;20628;-52
2021/01/02 07:06:37;;;;;;;37.70;26.60;;;;;;;;;;5104726;28;20177;-51
2021/01/02 07:09:14;;;;;;;34.93;25.70;;;;;;;;;;5107790;27;20191;-52
2021/01/02 07:11:43;;;;;;;33.10;25.27;;;;;;;;;;5107573;28;20594;-51
2021/01/02 07:14:09;;;;;;;38.00;26.23;;;;;;;;;;5105384;28;21178;-51
2021/01/02 07:16:34;;;;;;;38.40;27.30;;;;;;;;;;5106284;28;20594;-50
2021/01/02 07:18:59;;;;;;;39.80;25.97;;;;;;;;;;5110663;28;20224;-50
2021/01/02 07:21:31;;;;;;;35.87;25.47;;;;;;;;;;5110807;28;20170;-51
2021/01/02 07:23:56;;;;;;;40.50;26.93;;;;;;;;;;5109991;28;20928;-51
2021/01/02 07:26:21;;;;;;;40.35;26.35;;;;;;;;;;5107007;27;21145;-51
2021/01/02 07:28:52;;;;;;;37.07;25.80;;;;;;;;;;5106785;28;20659;-50
2021/01/02 07:31:17;;;;;;;31.87;24.17;;;;;;;;;;5110876;28;20180;-50
2021/01/02 07:33:42;;;;;;;36.97;24.63;;;;;;;;;;5110135;28;20621;-50
2021/01/02 07:36:18;;;;;;;36.85;26.02;;;;;;;;;;5108571;27;20181;-51
2021/01/02 07:38:43;;;;;;;35.90;24.43;;;;;;;;;;5110443;28;20177;-51
2021/01/02 07:41:08;;;;;;;31.17;24.07;;;;;;;;;;5108997;27;21038;-51
2021/01/02 07:43:34;;;;;;;33.57;25.20;;;;;;;;;;5110936;27;20205;-51
2021/01/02 07:46:01;;;;;;;35.67;24.77;;;;;;;;;;5108079;28;20166;-51
2021/01/02 07:48:26;;;;;;;36.43;24.90;;;;;;;;;;5109750;28;20679;-51
2021/01/02 07:50:52;;;;;;;38.20;25.17;;;;;;;;;;5109356;28;20698;-51
2021/01/02 07:53:17;;;;;;;36.53;24.63;;;;;;;;;;5109626;28;20205;-52
2021/01/02 07:55:42;;;;;;;35.58;25.40;;;;;;;;;;5104827;28;20177;-50
2021/01/02 07:58:07;;;;;;;37.53;25.55;;;;;;;;;;5109395;28;20634;-50
2021/01/02 08:00:32;;;;;;;37.63;25.27;;;;;;;;;;5109116;28;20182;-50
2021/01/02 08:03:02;;;;;;;37.25;24.77;;;;;;;;;;5104819;27;20214;-50
2021/01/02 08:05:27;;;;;;;39.23;25.90;;;;;;;;;;5113485;28;20652;-50
2021/01/02 08:07:59;;;;;;;38.53;25.83;;;;;;;;;;5112097;28;20602;-50
2021/01/02 08:10:25;;;;;;;35.90;25.07;;;;;;;;;;5111272;28;20573;-48
2021/01/02 08:12:51;;;;;;;39.13;24.47;;;;;;;;;;5117454;28;20594;-50
2021/01/02 08:15:25;;;;;;;30.33;23.77;;;;;;;;;;5105489;28;20181;-51
2021/01/02 08:17:50;;;;;;;32.43;24.33;;;;;;;;;;5102181;28;21211;-50
2021/01/02 08:20:15;;;;;;;34.10;23.50;;;;;;;;;;5108218;28;20653;-50
2021/01/02 08:22:40;;;;;;;34.50;24.98;;;;;;;;;;5110042;28;20401;-48
2021/01/02 08:25:10;;;;;;;36.23;25.13;;;;;;;;;;5109722;28;20197;-50
2021/01/02 08:27:36;;;;;;;34.53;24.07;;;;;;;;;;5108368;28;20171;-50
2021/01/02 08:30:03;;;;;;;32.73;24.00;;;;;;;;;;5111064;28;20614;-50
2021/01/02 08:32:28;;;;;;;34.57;23.90;;;;;;;;;;5111833;28;20184;-50
2021/01/02 08:34:54;;;;;;;38.33;28.37;;;;;;;;;;5110131;28;20747;-53
2021/01/02 08:37:20;;;;;;;35.08;23.92;;;;;;;;;;5108706;28;20208;-51
2021/01/02 08:39:45;;;;;;;29.17;23.10;;;;;;;;;;5113111;28;20173;-50
2021/01/02 08:42:11;;;;;;;32.40;23.57;;;;;;;;;;5114614;28;21186;-51
2021/01/02 08:44:43;;;;;;;36.93;23.43;;;;;;;;;;5113923;28;20190;-49
2021/01/02 08:47:08;;;;;;;35.83;23.90;;;;;;;;;;5112933;28;20728;-50
2021/01/02 08:49:44;;;;;;;34.03;22.57;;;;;;;;;;5114044;28;21458;-50
2021/01/02 08:52:25;;;;;;;34.70;24.20;;;;;;;;;;5113003;28;20176;-50
2021/01/02 08:54:52;;;;;;;36.40;24.10;;;;;;;;;;5113503;28;20596;-51
2021/01/02 08:57:31;;;;;;;32.23;23.20;;;;;;;;;;5109515;27;20614;-50
2021/01/02 09:00:06;;;;;;;33.23;23.37;;;;;;;;;;5111281;28;20603;-50
2021/01/02 09:02:52;;;;;;;31.83;23.90;;;;;;;;;;5112289;28;20650;-50
2021/01/02 09:05:24;;;;;;;39.70;25.43;;;;;;;;;;5112088;28;20605;-50
2021/01/02 09:07:53;;;;;;;40.53;25.43;;;;;;;;;;5111041;28;20662;-51
2021/01/02 09:10:19;;;;;;;35.03;23.63;;;;;;;;;;5112369;28;20595;-52
2021/01/02 09:13:03;;;;;;;36.70;25.23;;;;;;;;;;5112534;28;20592;-53
2021/01/02 09:15:40;;;;;;;34.53;23.80;;;;;;;;;;5104784;28;20599;-50
2021/01/02 09:18:06;;;;;;;35.90;23.47;;;;;;;;;;5112480;28;21540;-50
2021/01/02 09:20:31;;;;;;;32.60;23.57;;;;;;;;;;5111203;27;20634;-49
2021/01/02 09:22:56;;;;;;;32.00;22.50;;;;;;;;;;5110246;27;20258;-49
2021/01/02 09:25:28;;;;;;;33.97;24.57;;;;;;;;;;5115088;27;20256;-50
2021/01/02 09:27:53;;;;;;;37.37;24.03;;;;;;;;;;5124924;27;20177;-50
2021/01/02 09:30:18;;;;;;;36.17;23.80;;;;;;;;;;5117811;27;20583;-51
2021/01/02 09:32:46;;;;;;;34.17;23.77;;;;;;;;;;5114614;27;20587;-51
2021/01/02 09:35:12;;;;;;;37.00;24.63;;;;;;;;;;5108692;27;20546;-51
2021/01/02 09:37:37;;;;;;;35.33;23.70;;;;;;;;;;5108270;27;20968;-50
2021/01/02 09:40:16;;;;;;;33.87;24.13;;;;;;;;;;5119266;27;20667;-51
2021/01/02 09:42:41;;;;;;;35.77;24.83;;;;;;;;;;5119929;27;20197;-51
2021/01/02 09:45:06;;;;;;;38.03;24.92;;;;;;;;;;5111997;27;20702;-51
2021/01/02 09:47:32;;;;;;;35.40;24.43;;;;;;;;;;5111400;27;20178;-52
2021/01/02 09:49:57;;;;;;;31.45;22.80;;;;;;;;;;5113224;27;20189;-51
2021/01/02 09:52:22;;;;;;;39.42;25.60;;;;;;;;;;5126649;27;20188;-51
2021/01/02 09:55:11;;;;;;;36.63;26.00;;;;;;;;;;5114423;27;20177;-51
2021/01/02 09:57:37;;;;;;;37.30;25.50;;;;;;;;;;5110789;27;20204;-51
2021/01/02 10:00:04;;;;;;;38.50;27.53;;;;;;;;;;5110969;28;20623;-50
2021/01/02 10:02:29;;;;;;;35.60;25.40;;;;;;;;;;5103293;28;20232;-52
2021/01/02 10:04:54;;;;;;;36.93;25.67;;;;;;;;;;5116895;27;20927;-51
2021/01/02 10:07:20;;;;;;;34.53;25.50;;;;;;;;;;5107976;27;20177;-51
2021/01/02 10:09:46;;;;;;;36.37;25.83;;;;;;;;;;5096426;27;20175;-51
2021/01/02 10:12:12;;;;;;;37.20;25.97;;;;;;;;;;5106278;27;20185;-50
2021/01/02 10:14:37;;;;;;;36.80;25.50;;;;;;;;;;5105880;27;20891;-51
2021/01/02 10:17:03;;;;;;;35.83;26.00;;;;;;;;;;5114062;27;20607;-50
2021/01/02 10:19:30;;;;;;;34.60;25.47;;;;;;;;;;5104914;27;20221;-51
2021/01/02 10:21:56;;;;;;;35.40;25.43;;;;;;;;;;5093781;27;20599;-51
2021/01/02 10:24:21;;;;;;;42.30;27.83;;;;;;;;;;5117053;27;20626;-52
2021/01/02 10:26:46;;;;;;;37.85;26.75;;;;;;;;;;5110397;27;20261;-49
2021/01/02 10:29:11;;;;;;;34.72;24.95;;;;;;;;;;5109945;27;20407;-48
2021/01/02 10:31:37;;;;;;;35.53;25.43;;;;;;;;;;5114137;27;20196;-53
2021/01/02 10:34:03;;;;;;;37.53;26.37;;;;;;;;;;5112322;27;20193;-49
2021/01/02 10:36:28;;;;;;;38.38;25.50;;;;;;;;;;5114259;27;20634;-49
2021/01/02 10:38:53;;;;;;;37.83;24.47;;;;;;;;;;5122775;27;20538;-49
2021/01/02 10:41:18;;;;;;;34.55;25.48;;;;;;;;;;5115897;27;20428;-49
2021/01/02 10:43:43;;;;;;;40.63;26.83;;;;;;;;;;5118149;27;20207;-49
2021/01/02 10:46:09;;;;;;;35.67;25.53;;;;;;;;;;5114717;27;20183;-50
2021/01/02 10:48:34;;;;;;;35.73;25.87;;;;;;;;;;5116265;27;20207;-50
2021/01/02 10:50:59;;;;;;;38.23;27.93;;;;;;;;;;5111948;27;20632;-49
2021/01/02 10:53:25;;;;;;;37.63;26.35;;;;;;;;;;5110688;28;20199;-50
2021/01/02 10:55:50;;;;;;;37.08;26.23;;;;;;;;;;5111686;27;20174;-50
2021/01/02 10:58:15;;;;;;;33.70;25.27;;;;;;;;;;5105768;28;20185;-51
2021/01/02 11:00:40;;;;;;;35.70;26.38;;;;;;;;;;5113572;27;20461;-49
2021/01/02 11:03:05;;;;;;;33.30;24.23;;;;;;;;;;5110085;28;20213;-50
2021/01/02 11:05:30;;;;;;;33.40;24.37;;;;;;;;;;5108312;27;20719;-49
2021/01/02 11:07:55;;;;;;;34.15;24.88;;;;;;;;;;5107208;27;20181;-50
2021/01/02 11:10:22;;;;;;;32.13;24.00;;;;;;;;;;5123286;27;20181;-49
2021/01/02 11:12:47;;;;;;;32.30;24.77;;;;;;;;;;5113927;27;20733;-49
2021/01/02 11:15:12;;;;;;;33.70;25.50;;;;;;;;;;5111570;28;20599;-48
2021/01/02 11:17:39;;;;;;;33.23;25.07;;;;;;;;;;5115759;27;20263;-49
2021/01/02 11:20:05;;;;;;;38.20;25.30;;;;;;;;;;5107317;28;20233;-50
2021/01/02 11:22:30;;;;;;;36.10;26.70;;;;;;;;;;5108160;27;20635;-51
2021/01/02 11:24:55;;;;;;;32.22;27.13;;;;;;;;;;5121177;27;20606;-52
2021/01/02 11:27:20;;;;;;;32.40;26.20;;;;;;;;;;5113612;27;20174;-49
2021/01/02 11:29:45;;;;;;;35.40;26.17;;;;;;;;;;5111101;28;20213;-49
2021/01/02 11:32:11;;;;;;;37.27;26.43;;;;;;;;;;5119606;27;20223;-49
2021/01/02 11:34:37;;;;;;;38.47;26.70;;;;;;;;;;5117188;27;20173;-50
2021/01/02 11:37:03;;;;;;;36.57;26.27;;;;;;;;;;5114772;27;20184;-49
2021/01/02 11:39:28;;;;;;;37.40;27.87;;;;;;;;;;5122410;27;20237;-50
2021/01/02 11:41:54;;;;;;;35.00;26.33;;;;;;;;;;5118838;27;20611;-51
2021/01/02 11:44:22;;;;;;;36.07;26.17;;;;;;;;;;5110000;28;20204;-49
2021/01/02 11:46:48;;;;;;;37.33;25.73;;;;;;;;;;5106188;28;20659;-50
2021/01/02 11:49:15;;;;;;;37.60;28.27;;;;;;;;;;5101362;28;21154;-49
2021/01/02 11:51:40;;;;;;;35.87;26.70;;;;;;;;;;5105985;28;20591;-52
2021/01/02 11:54:06;;;;;;;34.23;26.17;;;;;;;;;;5106644;28;21387;-51
2021/01/02 11:56:31;;;;;;;34.50;25.70;;;;;;;;;;5109549;28;20636;-51
2021/01/02 11:58:57;;;;;;;34.80;25.80;;;;;;;;;;5112183;27;20176;-52
2021/01/02 12:01:31;;;;;;;36.23;27.23;;;;;;;;;;5109838;28;20247;-51
2021/01/02 12:03:56;;;;;;;32.33;26.07;;;;;;;;;;5109829;28;20645;-51
2021/01/02 12:06:26;;;;;;;38.38;28.13;;;;;;;;;;5109674;28;20778;-50
2021/01/02 12:08:54;;;;;;;37.50;27.37;;;;;;;;;;5105913;28;20178;-51
2021/01/02 12:11:30;;;;;;;35.53;26.33;;;;;;;;;;5107653;28;20600;-50
2021/01/02 12:13:55;;;;;;;35.00;26.00;;;;;;;;;;5111675;28;20599;-51
2021/01/02 12:16:28;;;;;;;36.93;27.87;;;;;;;;;;5113841;28;20632;-51
2021/01/02 12:18:53;;;;;;;39.93;28.03;;;;;;;;;;5108069;28;20331;-50
2021/01/02 12:21:18;;;;;;;39.40;28.30;;;;;;;;;;5109989;28;20598;-51
2021/01/02 12:23:43;;;;;;;34.10;25.20;;;;;;;;;;5110882;28;20191;-51
2021/01/02 12:26:08;;;;;;;38.43;27.50;;;;;;;;;;5112717;28;20662;-51
2021/01/02 12:28:34;;;;;;;39.23;27.30;;;;;;;;;;5114847;27;20201;-51
2021/01/02 12:30:59;;;;;;;38.20;28.00;;;;;;;;;;5114618;28;20519;-51
2021/01/02 12:33:24;;;;;;;36.00;27.63;;;;;;;;;;5114089;28;20184;-51
2021/01/02 12:35:50;;;;;;;35.00;27.58;;;;;;;;;;5112699;28;20237;-50
2021/01/02 12:38:15;;;;;;;41.03;28.37;;;;;;;;;;5110629;28;20683;-50
2021/01/02 12:40:40;;;;;;;35.47;26.95;;;;;;;;;;5114292;28;20170;-51
2021/01/02 12:43:05;;;;;;;34.72;26.83;;;;;;;;;;5114425;28;20758;-50
2021/01/02 12:45:30;;;;;;;35.45;25.90;;;;;;;;;;5114405;28;20162;-51
2021/01/02 12:47:55;;;;;;;33.70;26.42;;;;;;;;;;5113289;27;20249;-50
2021/01/02 12:50:20;;;;;;;34.88;25.25;;;;;;;;;;5114125;28;20592;-51
2021/01/02 12:52:46;;;;;;;36.60;26.50;;;;;;;;;;5114062;28;20181;-50
2021/01/02 12:55:11;;;;;;;34.33;25.43;;;;;;;;;;5114283;28;20196;-51
2021/01/02 12:57:36;;;;;;;36.20;27.20;;;;;;;;;;5111933;28;20174;-51
2021/01/02 13:00:04;;;;;;;33.05;26.27;;;;;;;;;;5112272;28;20553;-50
2021/01/02 13:02:29;;;;;;;38.97;27.43;;;;;;;;;;5111549;27;20683;-51
2021/01/02 13:04:54;;;;;;;37.88;30.13;;;;;;;;;;5113369;27;21228;-51
2021/01/02 13:07:20;;;;;;;37.20;29.27;;;;;;;;;;5110045;28;20249;-50
2021/01/02 13:09:46;;;;;;;42.20;30.33;;;;;;;;;;5113934;27;20542;-51
2021/01/02 13:12:11;;;;;;;36.00;27.33;;;;;;;;;;5111501;28;20596;-50
2021/01/02 13:14:39;;;;;;;35.47;25.70;;;;;;;;;;5112919;28;20584;-51
2021/01/02 13:17:05;;;;;;;34.40;26.17;;;;;;;;;;5110237;28;20202;-51
2021/01/02 13:19:31;;;;;;;32.97;25.77;;;;;;;;;;5109003;28;20635;-51
2021/01/02 13:21:58;;;;;;;34.17;25.97;;;;;;;;;;5112910;28;20594;-50
2021/01/02 13:24:24;;;;;;;32.43;25.70;;;;;;;;;;5113352;28;20273;-50
2021/01/02 13:26:50;;;;;;;37.53;27.67;;;;;;;;;;5112463;28;21169;-50
2021/01/02 13:29:16;;;;;;;33.80;26.17;;;;;;;;;;5108492;28;20584;-51
2021/01/02 13:31:42;;;;;;;32.20;25.90;;;;;;;;;;5113706;28;20729;-51
2021/01/02 13:34:08;;;;;;;36.10;26.37;;;;;;;;;;5112616;28;20284;-51
2021/01/02 13:36:33;;;;;;;33.87;27.17;;;;;;;;;;5113380;28;21174;-51
2021/01/02 13:38:58;;;;;;;33.50;26.13;;;;;;;;;;5111284;28;20166;-50
2021/01/02 13:41:27;;;;;;;33.67;24.87;;;;;;;;;;5112437;28;20177;-51
2021/01/02 13:43:52;;;;;;;31.43;26.20;;;;;;;;;;5113019;28;20201;-51
2021/01/02 13:46:18;;;;;;;38.00;27.17;;;;;;;;;;5111407;27;20616;-51
2021/01/02 13:48:43;;;;;;;40.27;28.67;;;;;;;;;;5108368;27;20211;-50
2021/01/02 13:51:11;;;;;;;33.53;26.05;;;;;;;;;;5111906;27;20212;-50
2021/01/02 13:53:36;;;;;;;33.50;25.90;;;;;;;;;;5109393;28;20205;-51
2021/01/02 13:56:01;;;;;;;34.90;25.17;;;;;;;;;;5106618;28;20635;-51
2021/01/02 13:58:26;;;;;;;37.00;26.20;;;;;;;;;;5105455;28;20182;-51
2021/01/02 14:00:51;;;;;;;34.70;26.65;;;;;;;;;;5109887;28;20178;-51
2021/01/02 14:03:16;;;;;;;34.35;25.80;;;;;;;;;;5108487;28;20209;-51
2021/01/02 14:05:42;;;;;;;37.33;26.92;;;;;;;;;;5108858;28;20201;-51
2021/01/02 14:08:07;;;;;;;36.42;27.58;;;;;;;;;;5105375;28;20205;-51
2021/01/02 14:10:32;;;;;;;35.23;26.30;;;;;;;;;;5108708;28;20219;-50
2021/01/02 14:12:57;;;;;;;38.30;27.70;;;;;;;;;;5109910;27;20593;-51
2021/01/02 14:15:22;;;;;;;34.07;25.17;;;;;;;;;;5108843;28;20177;-51
2021/01/02 14:17:47;;;;;;;33.40;26.30;;;;;;;;;;5106027;28;20170;-51